Terminal Aerodrome Forecast
Issued by NWS Topeka, KS

Home | Current Version | Previous Version | Graphics & Text | Print | Product List | Glossary On
Versions: 1 2 3 4 5 6 7 8 9 10 11 12 13 14 15 16 17 18 19
292
FTUS43 KTOP 091720
TAFTOP
TAF
KTOP 091720Z 0918/1018 32016G25KT P6SM SCT100
     FM100000 32005KT P6SM SCT040 BKN100
     FM101200 15005KT P6SM BKN100=

USA.gov is the U.S. government's official web portal to all federal, state and local government web resources and services.